sensor_id;sensor_type;location;lat;lon;timestamp;temperature;humidity
18934;DHT22;9599;53.706;10.384;2022-10-16T00:00:58;15.20;99.90
18934;DHT22;9599;53.706;10.384;2022-10-16T00:03:31;15.10;99.90
18934;DHT22;9599;53.706;10.384;2022-10-16T00:06:00;15.10;99.90
18934;DHT22;9599;53.706;10.384;2022-10-16T00:08:29;15.10;99.90
18934;DHT22;9599;53.706;10.384;2022-10-16T00:11:02;15.10;99.90
18934;DHT22;9599;53.706;10.384;2022-10-16T00:13:32;15.00;99.90
18934;DHT22;9599;53.706;10.384;2022-10-16T00:16:01;15.00;99.90
18934;DHT22;9599;53.706;10.384;2022-10-16T00:18:30;15.00;99.90
18934;DHT22;9599;53.706;10.384;2022-10-16T00:21:02;15.00;99.90
18934;DHT22;9599;53.706;10.384;2022-10-16T00:23:30;15.00;99.90
18934;DHT22;9599;53.706;10.384;2022-10-16T00:26:00;15.00;99.90
18934;DHT22;9599;53.706;10.384;2022-10-16T00:28:28;14.90;99.90
18934;DHT22;9599;53.706;10.384;2022-10-16T00:30:57;14.90;99.90
18934;DHT22;9599;53.706;10.384;2022-10-16T00:33:25;15.00;99.90
18934;DHT22;9599;53.706;10.384;2022-10-16T00:35:53;14.90;99.90
18934;DHT22;9599;53.706;10.384;2022-10-16T00:38:21;15.00;99.90
18934;DHT22;9599;53.706;10.384;2022-10-16T00:40:48;14.90;99.90
18934;DHT22;9599;53.706;10.384;2022-10-16T00:43:32;14.90;99.90
18934;DHT22;9599;53.706;10.384;2022-10-16T00:46:03;14.90;99.90
18934;DHT22;9599;53.706;10.384;2022-10-16T00:48:32;14.80;99.90
18934;DHT22;9599;53.706;10.384;2022-10-16T00:51:00;14.80;99.90
18934;DHT22;9599;53.706;10.384;2022-10-16T00:53:28;14.80;99.90
18934;DHT22;9599;53.706;10.384;2022-10-16T00:55:56;14.80;99.90
18934;DHT22;9599;53.706;10.384;2022-10-16T00:58:24;14.80;99.90
18934;DHT22;9599;53.706;10.384;2022-10-16T01:00:52;14.70;99.90
18934;DHT22;9599;53.706;10.384;2022-10-16T01:03:27;14.70;99.90
18934;DHT22;9599;53.706;10.384;2022-10-16T01:06:11;14.70;99.90
18934;DHT22;9599;53.706;10.384;2022-10-16T01:08:53;14.70;99.90
18934;DHT22;9599;53.706;10.384;2022-10-16T01:11:30;14.70;99.90
18934;DHT22;9599;53.706;10.384;2022-10-16T01:14:04;14.70;99.90
18934;DHT22;9599;53.706;10.384;2022-10-16T01:16:38;14.70;99.90
18934;DHT22;9599;53.706;10.384;2022-10-16T01:19:14;14.60;99.90
18934;DHT22;9599;53.706;10.384;2022-10-16T01:21:47;14.60;99.90
18934;DHT22;9599;53.706;10.384;2022-10-16T01:24:22;14.60;99.90
18934;DHT22;9599;53.706;10.384;2022-10-16T01:27:12;14.60;99.90
18934;DHT22;9599;53.706;10.384;2022-10-16T01:29:48;14.50;99.90
18934;DHT22;9599;53.706;10.384;2022-10-16T01:32:20;14.50;99.90
18934;DHT22;9599;53.706;10.384;2022-10-16T01:34:52;14.50;99.90
18934;DHT22;9599;53.706;10.384;2022-10-16T01:37:29;14.40;99.90
18934;DHT22;9599;53.706;10.384;2022-10-16T01:40:00;14.40;99.90
18934;DHT22;9599;53.706;10.384;2022-10-16T01:42:35;14.40;99.90
18934;DHT22;9599;53.706;10.384;2022-10-16T01:45:06;14.40;99.90
18934;DHT22;9599;53.706;10.384;2022-10-16T01:47:35;14.40;99.90
18934;DHT22;9599;53.706;10.384;2022-10-16T01:50:05;14.30;99.90
18934;DHT22;9599;53.706;10.384;2022-10-16T01:52:37;14.30;99.90
18934;DHT22;9599;53.706;10.384;2022-10-16T01:55:08;14.30;99.90
18934;DHT22;9599;53.706;10.384;2022-10-16T01:57:43;14.20;99.90
18934;DHT22;9599;53.706;10.384;2022-10-16T02:00:14;14.20;99.90
18934;DHT22;9599;53.706;10.384;2022-10-16T02:02:47;14.20;99.90
18934;DHT22;9599;53.706;10.384;2022-10-16T02:05:21;14.20;99.90
18934;DHT22;9599;53.706;10.384;2022-10-16T02:07:50;14.20;99.90
18934;DHT22;9599;53.706;10.384;2022-10-16T02:10:19;14.20;99.90
18934;DHT22;9599;53.706;10.384;2022-10-16T02:12:52;14.20;99.90
18934;DHT22;9599;53.706;10.384;2022-10-16T02:15:22;14.10;99.90
18934;DHT22;9599;53.706;10.384;2022-10-16T02:17:50;14.20;99.90
18934;DHT22;9599;53.706;10.384;2022-10-16T02:20:20;14.10;99.90
18934;DHT22;9599;53.706;10.384;2022-10-16T02:22:50;14.10;99.90
18934;DHT22;9599;53.706;10.384;2022-10-16T02:25:24;14.10;99.90
18934;DHT22;9599;53.706;10.384;2022-10-16T02:27:57;14.10;99.90
18934;DHT22;9599;53.706;10.384;2022-10-16T02:30:30;14.10;99.90
18934;DHT22;9599;53.706;10.384;2022-10-16T02:33:00;14.10;99.90
18934;DHT22;9599;53.706;10.384;2022-10-16T02:35:30;14.00;99.90
18934;DHT22;9599;53.706;10.384;2022-10-16T02:37:59;14.10;99.90
18934;DHT22;9599;53.706;10.384;2022-10-16T02:40:27;14.00;99.90
18934;DHT22;9599;53.706;10.384;2022-10-16T02:42:57;14.10;99.90
18934;DHT22;9599;53.706;10.384;2022-10-16T02:45:26;14.00;99.90
18934;DHT22;9599;53.706;10.384;2022-10-16T02:47:54;14.00;99.90
18934;DHT22;9599;53.706;10.384;2022-10-16T02:50:21;14.00;99.90
18934;DHT22;9599;53.706;10.384;2022-10-16T02:52:50;13.90;99.90
18934;DHT22;9599;53.706;10.384;2022-10-16T02:55:19;13.90;99.90
18934;DHT22;9599;53.706;10.384;2022-10-16T02:57:46;13.90;99.90
18934;DHT22;9599;53.706;10.384;2022-10-16T03:00:17;13.90;99.90
18934;DHT22;9599;53.706;10.384;2022-10-16T03:02:45;13.80;99.90
18934;DHT22;9599;53.706;10.384;2022-10-16T03:05:13;13.80;99.90
18934;DHT22;9599;53.706;10.384;2022-10-16T03:07:42;13.80;99.90
18934;DHT22;9599;53.706;10.384;2022-10-16T03:10:09;13.80;99.90
18934;DHT22;9599;53.706;10.384;2022-10-16T03:12:37;13.80;99.90
18934;DHT22;9599;53.706;10.384;2022-10-16T03:15:06;13.70;99.90
18934;DHT22;9599;53.706;10.384;2022-10-16T03:17:35;13.70;99.90
18934;DHT22;9599;53.706;10.384;2022-10-16T03:20:04;13.70;99.90
18934;DHT22;9599;53.706;10.384;2022-10-16T03:22:32;13.60;99.90
18934;DHT22;9599;53.706;10.384;2022-10-16T03:25:00;13.60;99.90
18934;DHT22;9599;53.706;10.384;2022-10-16T03:27:28;13.60;99.90
18934;DHT22;9599;53.706;10.384;2022-10-16T03:29:56;13.60;99.90
18934;DHT22;9599;53.706;10.384;2022-10-16T03:32:24;13.60;99.90
18934;DHT22;9599;53.706;10.384;2022-10-16T03:34:53;13.50;99.90
18934;DHT22;9599;53.706;10.384;2022-10-16T03:37:23;13.50;99.90
18934;DHT22;9599;53.706;10.384;2022-10-16T03:39:51;13.50;99.90
18934;DHT22;9599;53.706;10.384;2022-10-16T03:42:19;13.50;99.90
18934;DHT22;9599;53.706;10.384;2022-10-16T03:44:47;13.50;99.90
18934;DHT22;9599;53.706;10.384;2022-10-16T03:47:15;13.50;99.90
18934;DHT22;9599;53.706;10.384;2022-10-16T03:49:47;13.40;99.90
18934;DHT22;9599;53.706;10.384;2022-10-16T03:52:16;13.40;99.90
18934;DHT22;9599;53.706;10.384;2022-10-16T03:54:49;13.40;99.90
18934;DHT22;9599;53.706;10.384;2022-10-16T03:57:17;13.40;99.90
18934;DHT22;9599;53.706;10.384;2022-10-16T03:59:45;13.30;99.90
18934;DHT22;9599;53.706;10.384;2022-10-16T04:02:13;13.40;99.90
18934;DHT22;9599;53.706;10.384;2022-10-16T04:04:41;13.40;99.90
18934;DHT22;9599;53.706;10.384;2022-10-16T04:07:09;13.40;99.90
18934;DHT22;9599;53.706;10.384;2022-10-16T04:09:38;13.40;99.90
18934;DHT22;9599;53.706;10.384;2022-10-16T04:12:06;13.40;99.90
18934;DHT22;9599;53.706;10.384;2022-10-16T04:14:34;13.30;99.90
18934;DHT22;9599;53.706;10.384;2022-10-16T04:17:02;13.30;99.90
18934;DHT22;9599;53.706;10.384;2022-10-16T04:19:29;13.40;99.90
18934;DHT22;9599;53.706;10.384;2022-10-16T04:21:57;13.40;99.90
18934;DHT22;9599;53.706;10.384;2022-10-16T04:24:25;13.40;99.90
18934;DHT22;9599;53.706;10.384;2022-10-16T04:26:54;13.30;99.90
18934;DHT22;9599;53.706;10.384;2022-10-16T04:29:22;13.30;99.90
18934;DHT22;9599;53.706;10.384;2022-10-16T04:31:50;13.30;99.90
18934;DHT22;9599;53.706;10.384;2022-10-16T04:34:18;13.30;99.90
18934;DHT22;9599;53.706;10.384;2022-10-16T04:36:47;13.30;99.90
18934;DHT22;9599;53.706;10.384;2022-10-16T04:39:15;13.30;99.90
18934;DHT22;9599;53.706;10.384;2022-10-16T04:41:43;13.20;99.90
18934;DHT22;9599;53.706;10.384;2022-10-16T04:44:13;13.20;99.90
18934;DHT22;9599;53.706;10.384;2022-10-16T04:46:41;13.30;99.90
18934;DHT22;9599;53.706;10.384;2022-10-16T04:49:08;13.30;99.90
18934;DHT22;9599;53.706;10.384;2022-10-16T04:51:36;13.30;99.90
18934;DHT22;9599;53.706;10.384;2022-10-16T04:54:04;13.20;99.90
18934;DHT22;9599;53.706;10.384;2022-10-16T04:56:32;13.30;99.90
18934;DHT22;9599;53.706;10.384;2022-10-16T04:59:06;13.20;99.90
18934;DHT22;9599;53.706;10.384;2022-10-16T05:01:35;13.20;99.90
18934;DHT22;9599;53.706;10.384;2022-10-16T05:04:03;13.20;99.90
18934;DHT22;9599;53.706;10.384;2022-10-16T05:06:31;13.20;99.90
18934;DHT22;9599;53.706;10.384;2022-10-16T05:08:59;13.20;99.90
18934;DHT22;9599;53.706;10.384;2022-10-16T05:11:27;13.20;99.90
18934;DHT22;9599;53.706;10.384;2022-10-16T05:13:55;13.20;99.90
18934;DHT22;9599;53.706;10.384;2022-10-16T05:16:23;13.10;99.90
18934;DHT22;9599;53.706;10.384;2022-10-16T05:18:52;13.10;99.90
18934;DHT22;9599;53.706;10.384;2022-10-16T05:21:35;13.10;99.90
18934;DHT22;9599;53.706;10.384;2022-10-16T05:24:03;13.10;99.90
18934;DHT22;9599;53.706;10.384;2022-10-16T05:26:31;13.10;99.90
18934;DHT22;9599;53.706;10.384;2022-10-16T05:28:59;13.10;99.90
18934;DHT22;9599;53.706;10.384;2022-10-16T05:31:27;13.00;99.90
18934;DHT22;9599;53.706;10.384;2022-10-16T05:33:59;13.10;99.90
18934;DHT22;9599;53.706;10.384;2022-10-16T05:36:27;13.00;99.90
18934;DHT22;9599;53.706;10.384;2022-10-16T05:38:55;13.00;99.90
18934;DHT22;9599;53.706;10.384;2022-10-16T05:41:23;13.00;99.90
18934;DHT22;9599;53.706;10.384;2022-10-16T05:43:53;12.90;99.90
18934;DHT22;9599;53.706;10.384;2022-10-16T05:46:21;13.00;99.90
18934;DHT22;9599;53.706;10.384;2022-10-16T05:48:51;12.90;99.90
18934;DHT22;9599;53.706;10.384;2022-10-16T05:51:21;12.90;99.90
18934;DHT22;9599;53.706;10.384;2022-10-16T05:53:48;12.90;99.90
18934;DHT22;9599;53.706;10.384;2022-10-16T05:56:16;12.90;99.90
18934;DHT22;9599;53.706;10.384;2022-10-16T05:58:44;12.90;99.90
18934;DHT22;9599;53.706;10.384;2022-10-16T06:01:14;12.90;99.90
18934;DHT22;9599;53.706;10.384;2022-10-16T06:03:42;12.90;99.90
18934;DHT22;9599;53.706;10.384;2022-10-16T06:06:11;12.90;99.90
18934;DHT22;9599;53.706;10.384;2022-10-16T06:08:42;12.90;99.90
18934;DHT22;9599;53.706;10.384;2022-10-16T06:11:13;12.90;99.90
18934;DHT22;9599;53.706;10.384;2022-10-16T06:13:41;12.90;99.90
18934;DHT22;9599;53.706;10.384;2022-10-16T06:16:09;12.90;99.90
18934;DHT22;9599;53.706;10.384;2022-10-16T06:18:38;12.90;99.90
18934;DHT22;9599;53.706;10.384;2022-10-16T06:21:08;13.00;99.90
18934;DHT22;9599;53.706;10.384;2022-10-16T06:23:37;13.00;99.90
18934;DHT22;9599;53.706;10.384;2022-10-16T06:26:08;13.00;99.90
18934;DHT22;9599;53.706;10.384;2022-10-16T06:28:36;13.10;99.90
18934;DHT22;9599;53.706;10.384;2022-10-16T06:31:05;13.10;99.90
18934;DHT22;9599;53.706;10.384;2022-10-16T06:33:34;13.10;99.90
18934;DHT22;9599;53.706;10.384;2022-10-16T06:36:03;13.10;99.90
18934;DHT22;9599;53.706;10.384;2022-10-16T06:38:31;13.10;99.90
18934;DHT22;9599;53.706;10.384;2022-10-16T06:41:00;13.10;99.90
18934;DHT22;9599;53.706;10.384;2022-10-16T06:43:30;13.10;99.90
18934;DHT22;9599;53.706;10.384;2022-10-16T06:45:59;13.10;99.90
18934;DHT22;9599;53.706;10.384;2022-10-16T06:48:28;13.10;99.90
18934;DHT22;9599;53.706;10.384;2022-10-16T06:50:57;13.10;99.90
18934;DHT22;9599;53.706;10.384;2022-10-16T06:53:27;13.00;99.90
18934;DHT22;9599;53.706;10.384;2022-10-16T06:56:07;13.10;99.90
18934;DHT22;9599;53.706;10.384;2022-10-16T06:58:37;13.10;99.90
18934;DHT22;9599;53.706;10.384;2022-10-16T07:01:07;13.10;99.90
18934;DHT22;9599;53.706;10.384;2022-10-16T07:03:36;13.10;99.90
18934;DHT22;9599;53.706;10.384;2022-10-16T07:06:06;13.20;99.90
18934;DHT22;9599;53.706;10.384;2022-10-16T07:08:35;13.20;99.90
18934;DHT22;9599;53.706;10.384;2022-10-16T07:11:05;13.30;99.90
18934;DHT22;9599;53.706;10.384;2022-10-16T07:13:33;13.30;99.90
18934;DHT22;9599;53.706;10.384;2022-10-16T07:16:06;13.40;99.90
18934;DHT22;9599;53.706;10.384;2022-10-16T07:18:34;13.40;99.90
18934;DHT22;9599;53.706;10.384;2022-10-16T07:21:04;13.40;99.90
18934;DHT22;9599;53.706;10.384;2022-10-16T07:23:32;13.50;99.90
18934;DHT22;9599;53.706;10.384;2022-10-16T07:26:00;13.50;99.90
18934;DHT22;9599;53.706;10.384;2022-10-16T07:28:28;13.60;99.90
18934;DHT22;9599;53.706;10.384;2022-10-16T07:31:00;13.70;99.90
18934;DHT22;9599;53.706;10.384;2022-10-16T07:33:30;13.80;99.90
18934;DHT22;9599;53.706;10.384;2022-10-16T07:35:58;13.90;99.90
18934;DHT22;9599;53.706;10.384;2022-10-16T07:38:26;14.00;99.90
18934;DHT22;9599;53.706;10.384;2022-10-16T07:40:57;14.20;99.90
18934;DHT22;9599;53.706;10.384;2022-10-16T07:43:26;14.50;99.90
18934;DHT22;9599;53.706;10.384;2022-10-16T07:45:55;14.60;99.90
18934;DHT22;9599;53.706;10.384;2022-10-16T07:48:28;14.60;99.90
18934;DHT22;9599;53.706;10.384;2022-10-16T07:50:59;14.60;99.90
18934;DHT22;9599;53.706;10.384;2022-10-16T07:53:27;14.70;99.90
18934;DHT22;9599;53.706;10.384;2022-10-16T07:55:57;14.70;99.90
18934;DHT22;9599;53.706;10.384;2022-10-16T07:58:26;14.80;99.90
18934;DHT22;9599;53.706;10.384;2022-10-16T08:00:54;14.80;99.90
18934;DHT22;9599;53.706;10.384;2022-10-16T08:03:22;14.80;99.90
18934;DHT22;9599;53.706;10.384;2022-10-16T08:05:51;14.90;99.90
18934;DHT22;9599;53.706;10.384;2022-10-16T08:08:20;14.90;99.90
18934;DHT22;9599;53.706;10.384;2022-10-16T08:10:48;14.90;99.90
18934;DHT22;9599;53.706;10.384;2022-10-16T08:13:16;14.90;99.90
18934;DHT22;9599;53.706;10.384;2022-10-16T08:15:44;14.90;99.90
18934;DHT22;9599;53.706;10.384;2022-10-16T08:18:14;14.80;99.90
18934;DHT22;9599;53.706;10.384;2022-10-16T08:20:43;14.90;99.90
18934;DHT22;9599;53.706;10.384;2022-10-16T08:23:11;14.90;99.90
18934;DHT22;9599;53.706;10.384;2022-10-16T08:25:41;14.90;99.90
18934;DHT22;9599;53.706;10.384;2022-10-16T08:28:10;14.90;99.90
18934;DHT22;9599;53.706;10.384;2022-10-16T08:30:38;15.00;99.90
18934;DHT22;9599;53.706;10.384;2022-10-16T08:33:06;15.00;99.90
18934;DHT22;9599;53.706;10.384;2022-10-16T08:35:34;15.10;99.90
18934;DHT22;9599;53.706;10.384;2022-10-16T08:38:03;15.20;99.90
18934;DHT22;9599;53.706;10.384;2022-10-16T08:40:32;15.30;99.90
18934;DHT22;9599;53.706;10.384;2022-10-16T08:43:35;15.50;99.90
18934;DHT22;9599;53.706;10.384;2022-10-16T08:46:15;15.70;99.90
18934;DHT22;9599;53.706;10.384;2022-10-16T08:48:45;15.80;99.90
18934;DHT22;9599;53.706;10.384;2022-10-16T08:51:19;15.90;99.90
18934;DHT22;9599;53.706;10.384;2022-10-16T08:53:51;16.10;99.90
18934;DHT22;9599;53.706;10.384;2022-10-16T08:56:20;16.30;99.90
18934;DHT22;9599;53.706;10.384;2022-10-16T08:58:50;16.50;99.90
18934;DHT22;9599;53.706;10.384;2022-10-16T09:01:32;16.60;99.90
18934;DHT22;9599;53.706;10.384;2022-10-16T09:07:02;16.80;99.90
18934;DHT22;9599;53.706;10.384;2022-10-16T09:09:52;16.90;99.90
18934;DHT22;9599;53.706;10.384;2022-10-16T09:12:26;17.00;99.90
18934;DHT22;9599;53.706;10.384;2022-10-16T09:15:07;17.20;99.90
18934;DHT22;9599;53.706;10.384;2022-10-16T09:17:46;17.50;99.90
18934;DHT22;9599;53.706;10.384;2022-10-16T09:20:24;17.50;99.90
18934;DHT22;9599;53.706;10.384;2022-10-16T09:23:13;17.50;99.90
18934;DHT22;9599;53.706;10.384;2022-10-16T09:25:45;17.50;99.90
18934;DHT22;9599;53.706;10.384;2022-10-16T09:28:14;17.40;99.90
18934;DHT22;9599;53.706;10.384;2022-10-16T09:30:44;17.50;99.90
18934;DHT22;9599;53.706;10.384;2022-10-16T09:33:13;17.70;99.90
18934;DHT22;9599;53.706;10.384;2022-10-16T09:35:42;17.60;99.90
18934;DHT22;9599;53.706;10.384;2022-10-16T09:38:21;17.60;99.90
18934;DHT22;9599;53.706;10.384;2022-10-16T09:40:50;17.70;99.90
18934;DHT22;9599;53.706;10.384;2022-10-16T09:43:34;17.80;99.90
18934;DHT22;9599;53.706;10.384;2022-10-16T09:46:06;17.90;99.90
18934;DHT22;9599;53.706;10.384;2022-10-16T09:48:37;18.00;99.90
18934;DHT22;9599;53.706;10.384;2022-10-16T09:51:18;18.00;99.90
18934;DHT22;9599;53.706;10.384;2022-10-16T09:53:47;18.10;99.90
18934;DHT22;9599;53.706;10.384;2022-10-16T09:56:22;18.10;99.90
18934;DHT22;9599;53.706;10.384;2022-10-16T09:58:51;18.20;99.90
18934;DHT22;9599;53.706;10.384;2022-10-16T10:01:23;18.20;99.90
18934;DHT22;9599;53.706;10.384;2022-10-16T10:03:56;18.20;99.90
18934;DHT22;9599;53.706;10.384;2022-10-16T10:06:30;18.10;99.90
18934;DHT22;9599;53.706;10.384;2022-10-16T10:09:02;18.20;99.90
18934;DHT22;9599;53.706;10.384;2022-10-16T10:11:44;18.30;99.90
18934;DHT22;9599;53.706;10.384;2022-10-16T10:14:20;18.20;99.90
18934;DHT22;9599;53.706;10.384;2022-10-16T10:16:51;18.40;99.90
18934;DHT22;9599;53.706;10.384;2022-10-16T10:19:21;18.50;99.90
18934;DHT22;9599;53.706;10.384;2022-10-16T10:21:54;18.50;99.90
18934;DHT22;9599;53.706;10.384;2022-10-16T10:24:22;18.50;99.90
18934;DHT22;9599;53.706;10.384;2022-10-16T10:26:54;18.50;99.90
18934;DHT22;9599;53.706;10.384;2022-10-16T10:29:31;18.50;99.90
18934;DHT22;9599;53.706;10.384;2022-10-16T10:32:11;18.70;99.90
18934;DHT22;9599;53.706;10.384;2022-10-16T10:34:52;18.80;99.90
18934;DHT22;9599;53.706;10.384;2022-10-16T10:37:47;19.00;99.90
18934;DHT22;9599;53.706;10.384;2022-10-16T10:40:29;19.00;99.90
18934;DHT22;9599;53.706;10.384;2022-10-16T10:43:03;18.90;99.90
18934;DHT22;9599;53.706;10.384;2022-10-16T10:45:40;18.80;99.90
18934;DHT22;9599;53.706;10.384;2022-10-16T10:48:22;18.90;99.90
18934;DHT22;9599;53.706;10.384;2022-10-16T10:50:56;18.70;99.90
18934;DHT22;9599;53.706;10.384;2022-10-16T10:53:33;18.70;99.90
18934;DHT22;9599;53.706;10.384;2022-10-16T10:56:13;18.70;99.90
18934;DHT22;9599;53.706;10.384;2022-10-16T10:58:54;18.70;99.90
18934;DHT22;9599;53.706;10.384;2022-10-16T11:01:31;18.80;99.90
18934;DHT22;9599;53.706;10.384;2022-10-16T11:04:29;18.80;99.90
18934;DHT22;9599;53.706;10.384;2022-10-16T11:07:04;18.80;99.90
18934;DHT22;9599;53.706;10.384;2022-10-16T11:09:36;18.80;99.90
18934;DHT22;9599;53.706;10.384;2022-10-16T11:12:09;18.70;99.90
18934;DHT22;9599;53.706;10.384;2022-10-16T11:14:42;18.70;99.90
18934;DHT22;9599;53.706;10.384;2022-10-16T11:17:16;18.80;99.90
18934;DHT22;9599;53.706;10.384;2022-10-16T11:19:50;18.90;99.90
18934;DHT22;9599;53.706;10.384;2022-10-16T11:22:22;18.90;99.90
18934;DHT22;9599;53.706;10.384;2022-10-16T11:24:54;18.80;99.90
18934;DHT22;9599;53.706;10.384;2022-10-16T11:27:35;18.90;99.90
18934;DHT22;9599;53.706;10.384;2022-10-16T11:30:11;18.80;99.90
18934;DHT22;9599;53.706;10.384;2022-10-16T11:32:52;18.90;99.90
18934;DHT22;9599;53.706;10.384;2022-10-16T11:35:27;18.90;99.90
18934;DHT22;9599;53.706;10.384;2022-10-16T11:37:58;19.00;99.90
18934;DHT22;9599;53.706;10.384;2022-10-16T11:40:30;19.00;99.90
18934;DHT22;9599;53.706;10.384;2022-10-16T11:43:06;19.00;99.90
18934;DHT22;9599;53.706;10.384;2022-10-16T11:45:41;19.00;99.90
18934;DHT22;9599;53.706;10.384;2022-10-16T11:48:18;19.00;99.90
18934;DHT22;9599;53.706;10.384;2022-10-16T11:50:52;19.20;99.90
18934;DHT22;9599;53.706;10.384;2022-10-16T11:53:27;19.20;99.90
18934;DHT22;9599;53.706;10.384;2022-10-16T11:55:58;19.00;99.90
18934;DHT22;9599;53.706;10.384;2022-10-16T11:58:29;19.00;99.90
18934;DHT22;9599;53.706;10.384;2022-10-16T12:01:10;19.00;99.90
18934;DHT22;9599;53.706;10.384;2022-10-16T12:03:47;18.90;99.90
18934;DHT22;9599;53.706;10.384;2022-10-16T12:06:26;18.90;99.90
18934;DHT22;9599;53.706;10.384;2022-10-16T12:08:59;18.80;99.90
18934;DHT22;9599;53.706;10.384;2022-10-16T12:11:36;18.80;99.90
18934;DHT22;9599;53.706;10.384;2022-10-16T12:14:20;18.80;99.90
18934;DHT22;9599;53.706;10.384;2022-10-16T12:16:54;18.70;99.90
18934;DHT22;9599;53.706;10.384;2022-10-16T12:19:24;18.70;99.90
18934;DHT22;9599;53.706;10.384;2022-10-16T12:21:56;18.40;99.90
18934;DHT22;9599;53.706;10.384;2022-10-16T12:24:32;18.40;99.90
18934;DHT22;9599;53.706;10.384;2022-10-16T12:27:01;18.40;99.90
18934;DHT22;9599;53.706;10.384;2022-10-16T12:29:34;18.50;99.90
18934;DHT22;9599;53.706;10.384;2022-10-16T12:32:04;18.50;99.90
18934;DHT22;9599;53.706;10.384;2022-10-16T12:34:38;18.50;99.90
18934;DHT22;9599;53.706;10.384;2022-10-16T12:37:14;18.50;99.90
18934;DHT22;9599;53.706;10.384;2022-10-16T12:39:42;18.50;99.90
18934;DHT22;9599;53.706;10.384;2022-10-16T12:42:22;18.50;99.90
18934;DHT22;9599;53.706;10.384;2022-10-16T12:44:51;18.60;99.90
18934;DHT22;9599;53.706;10.384;2022-10-16T12:47:21;18.60;99.90
18934;DHT22;9599;53.706;10.384;2022-10-16T12:49:51;18.60;99.90
18934;DHT22;9599;53.706;10.384;2022-10-16T12:52:34;18.70;99.90
18934;DHT22;9599;53.706;10.384;2022-10-16T12:55:05;18.70;99.90
18934;DHT22;9599;53.706;10.384;2022-10-16T12:57:55;18.60;99.90
18934;DHT22;9599;53.706;10.384;2022-10-16T13:00:32;18.70;99.90
18934;DHT22;9599;53.706;10.384;2022-10-16T13:03:31;18.70;99.90
18934;DHT22;9599;53.706;10.384;2022-10-16T13:06:15;18.80;99.90
18934;DHT22;9599;53.706;10.384;2022-10-16T13:09:02;18.70;99.90
18934;DHT22;9599;53.706;10.384;2022-10-16T13:11:45;18.50;99.90
18934;DHT22;9599;53.706;10.384;2022-10-16T13:14:49;18.40;99.90
18934;DHT22;9599;53.706;10.384;2022-10-16T13:17:24;18.20;99.90
18934;DHT22;9599;53.706;10.384;2022-10-16T13:20:00;18.00;99.90
18934;DHT22;9599;53.706;10.384;2022-10-16T13:22:35;18.00;99.90
18934;DHT22;9599;53.706;10.384;2022-10-16T13:25:21;17.90;99.90
18934;DHT22;9599;53.706;10.384;2022-10-16T13:27:54;17.90;99.90
18934;DHT22;9599;53.706;10.384;2022-10-16T13:30:25;17.90;99.90
18934;DHT22;9599;53.706;10.384;2022-10-16T13:33:00;17.80;99.90
18934;DHT22;9599;53.706;10.384;2022-10-16T13:35:30;17.80;99.90
18934;DHT22;9599;53.706;10.384;2022-10-16T13:38:14;17.80;99.90
18934;DHT22;9599;53.706;10.384;2022-10-16T13:40:55;17.70;99.90
18934;DHT22;9599;53.706;10.384;2022-10-16T13:43:26;17.70;99.90
18934;DHT22;9599;53.706;10.384;2022-10-16T13:45:56;17.70;99.90
18934;DHT22;9599;53.706;10.384;2022-10-16T13:48:25;17.60;99.90
18934;DHT22;9599;53.706;10.384;2022-10-16T13:51:04;17.60;99.90
18934;DHT22;9599;53.706;10.384;2022-10-16T13:53:34;17.60;99.90
18934;DHT22;9599;53.706;10.384;2022-10-16T13:56:07;17.60;99.90
18934;DHT22;9599;53.706;10.384;2022-10-16T13:58:35;17.60;99.90
18934;DHT22;9599;53.706;10.384;2022-10-16T14:01:05;17.60;99.90
18934;DHT22;9599;53.706;10.384;2022-10-16T14:03:34;17.60;99.90
18934;DHT22;9599;53.706;10.384;2022-10-16T14:06:05;17.70;99.90
18934;DHT22;9599;53.706;10.384;2022-10-16T14:08:42;17.70;99.90
18934;DHT22;9599;53.706;10.384;2022-10-16T14:11:12;17.70;99.90
18934;DHT22;9599;53.706;10.384;2022-10-16T14:13:44;17.70;99.90
18934;DHT22;9599;53.706;10.384;2022-10-16T14:16:17;17.70;99.90
18934;DHT22;9599;53.706;10.384;2022-10-16T14:18:53;17.80;99.90
18934;DHT22;9599;53.706;10.384;2022-10-16T14:21:22;17.90;99.90
18934;DHT22;9599;53.706;10.384;2022-10-16T14:23:51;17.90;99.90
18934;DHT22;9599;53.706;10.384;2022-10-16T14:26:22;18.00;99.90
18934;DHT22;9599;53.706;10.384;2022-10-16T14:29:03;18.10;99.90
18934;DHT22;9599;53.706;10.384;2022-10-16T14:31:33;18.10;99.90
18934;DHT22;9599;53.706;10.384;2022-10-16T14:34:03;18.10;99.90
18934;DHT22;9599;53.706;10.384;2022-10-16T14:36:33;18.10;99.90
18934;DHT22;9599;53.706;10.384;2022-10-16T14:39:04;18.20;99.90
18934;DHT22;9599;53.706;10.384;2022-10-16T14:41:43;18.20;99.90
18934;DHT22;9599;53.706;10.384;2022-10-16T14:44:12;18.20;99.90
18934;DHT22;9599;53.706;10.384;2022-10-16T14:46:42;18.20;99.90
18934;DHT22;9599;53.706;10.384;2022-10-16T14:49:16;18.20;99.90
18934;DHT22;9599;53.706;10.384;2022-10-16T14:51:46;18.20;99.90
18934;DHT22;9599;53.706;10.384;2022-10-16T14:54:16;18.20;99.90
18934;DHT22;9599;53.706;10.384;2022-10-16T14:56:51;18.20;99.90
18934;DHT22;9599;53.706;10.384;2022-10-16T14:59:24;18.20;99.90
18934;DHT22;9599;53.706;10.384;2022-10-16T15:01:52;18.10;99.90
18934;DHT22;9599;53.706;10.384;2022-10-16T15:04:20;18.10;99.90
18934;DHT22;9599;53.706;10.384;2022-10-16T15:06:48;18.10;99.90
18934;DHT22;9599;53.706;10.384;2022-10-16T15:09:16;18.00;99.90
18934;DHT22;9599;53.706;10.384;2022-10-16T15:11:44;18.00;99.90
18934;DHT22;9599;53.706;10.384;2022-10-16T15:14:14;18.00;99.90
18934;DHT22;9599;53.706;10.384;2022-10-16T15:16:42;18.00;99.90
18934;DHT22;9599;53.706;10.384;2022-10-16T15:19:10;17.90;99.90
18934;DHT22;9599;53.706;10.384;2022-10-16T15:21:38;17.90;99.90
18934;DHT22;9599;53.706;10.384;2022-10-16T15:24:11;17.80;99.90
18934;DHT22;9599;53.706;10.384;2022-10-16T15:26:45;17.80;99.90
18934;DHT22;9599;53.706;10.384;2022-10-16T15:29:14;17.70;99.90
18934;DHT22;9599;53.706;10.384;2022-10-16T15:31:43;17.60;99.90
18934;DHT22;9599;53.706;10.384;2022-10-16T15:34:12;17.60;99.90
18934;DHT22;9599;53.706;10.384;2022-10-16T15:36:40;17.40;99.90
18934;DHT22;9599;53.706;10.384;2022-10-16T15:39:12;17.40;99.90
18934;DHT22;9599;53.706;10.384;2022-10-16T15:41:41;17.50;99.90
18934;DHT22;9599;53.706;10.384;2022-10-16T15:44:09;17.40;99.90
18934;DHT22;9599;53.706;10.384;2022-10-16T15:46:38;17.30;99.90
18934;DHT22;9599;53.706;10.384;2022-10-16T15:49:06;17.30;99.90
18934;DHT22;9599;53.706;10.384;2022-10-16T15:51:37;17.20;99.90
18934;DHT22;9599;53.706;10.384;2022-10-16T15:54:06;17.20;99.90
18934;DHT22;9599;53.706;10.384;2022-10-16T15:56:34;17.10;99.90
18934;DHT22;9599;53.706;10.384;2022-10-16T15:59:03;17.10;99.90
18934;DHT22;9599;53.706;10.384;2022-10-16T16:01:32;17.00;99.90